Time;durP1;ratioP1;P1;durP2;ratioP2;P2;SDS_P1;SDS_P2;PMS_P1;PMS_P2;Temp;Humidity;BMP_temperature;BMP_pressure;BME280_temperature;BME280_humidity;BME280_pressure;Samples;Min_cycle;Max_cycle;Signal;HPM_P1;HPM_P2
2023/07/17 00:02:00;;;;;;;22.17;17.30;;;;;;;-143.21;67.82;71072.88;5119064;27;20662;-77
2023/07/17 00:04:27;;;;;;;23.80;17.08;;;;;;;-143.21;67.65;71074.88;5114804;27;20222;-77
2023/07/17 00:06:54;;;;;;;22.60;17.48;;;;;;;-143.21;67.74;71068.94;5126079;27;20702;-77
2023/07/17 00:09:20;;;;;;;21.58;16.15;;;;;;;-143.21;67.99;71070.91;5119457;27;20203;-77
2023/07/17 00:11:48;;;;;;;22.98;16.48;;;;;;;-143.21;68.01;71068.94;5115874;27;20199;-77
2023/07/17 00:14:14;;;;;;;26.88;16.17;;;;;;;-143.21;67.62;71066.94;5114354;27;20208;-77
2023/07/17 00:16:41;;;;;;;29.05;17.05;;;;;;;-143.21;67.21;71064.97;5116581;27;20204;-77
2023/07/17 00:19:08;;;;;;;21.58;15.73;;;;;;;-143.21;66.66;71064.97;5115862;27;20211;-77
2023/07/17 00:21:35;;;;;;;24.25;14.88;;;;;;;-143.21;65.49;71057.03;5111918;27;20200;-78
2023/07/17 00:24:01;;;;;;;22.40;14.00;;;;;;;-143.21;63.91;71051.09;5118693;27;20196;-78
2023/07/17 00:26:30;;;;;;;17.42;13.80;;;;;;;-143.21;62.90;71039.19;5122885;27;20215;-78
2023/07/17 00:29:23;;;;;;;15.52;13.00;;;;;;;-143.21;62.01;71031.25;5115845;27;20223;-78
2023/07/17 00:31:50;;;;;;;16.95;13.57;;;;;;;-143.21;62.94;71035.22;5109063;27;20283;-78
2023/07/17 00:34:17;;;;;;;17.33;14.23;;;;;;;-143.21;63.17;71033.25;5122722;27;20215;-78
2023/07/17 00:36:44;;;;;;;18.20;13.98;;;;;;;-143.21;63.34;71051.09;5124827;27;20723;-78
2023/07/17 00:39:11;;;;;;;17.67;14.77;;;;;;;-143.21;63.46;71049.09;5114221;27;20739;-78
2023/07/17 00:41:38;;;;;;;19.83;14.48;;;;;;;-143.21;63.75;71053.06;5112615;27;20228;-78
2023/07/17 00:44:06;;;;;;;16.27;13.52;;;;;;;-143.21;63.72;71055.06;5126975;27;20699;-79
2023/07/17 00:46:34;;;;;;;16.80;14.20;;;;;;;-143.21;63.51;71062.97;5116615;27;20230;-78
2023/07/17 00:49:02;;;;;;;22.80;13.60;;;;;;;-143.21;63.59;71070.91;5111897;27;20199;-77
2023/07/17 00:51:29;;;;;;;19.05;13.63;;;;;;;-143.21;63.88;71076.84;5117701;27;20599;-77
2023/07/17 00:53:56;;;;;;;24.42;13.50;;;;;;;-143.21;63.45;71080.81;5121958;27;20202;-77
2023/07/17 00:56:24;;;;;;;21.58;12.23;;;;;;;-143.21;61.72;71082.81;5118185;27;20199;-78
2023/07/17 00:58:51;;;;;;;16.52;12.18;;;;;;;-143.21;60.51;71066.94;5129128;27;20698;-78
2023/07/17 01:01:19;;;;;;;15.13;12.07;;;;;;;-143.21;60.19;71066.94;5118400;27;20203;-78
2023/07/17 01:03:46;;;;;;;16.55;11.75;;;;;;;-143.21;59.81;71068.94;5122197;27;20214;-78
2023/07/17 01:06:13;;;;;;;16.20;12.05;;;;;;;-143.21;59.07;71066.94;5111186;27;20220;-77
2023/07/17 01:08:40;;;;;;;17.25;11.23;;;;;;;-143.21;58.92;71062.97;5111197;27;20215;-77
2023/07/17 01:11:07;;;;;;;14.38;10.98;;;;;;;-143.21;57.94;71059.00;5118673;27;20203;-78
2023/07/17 01:13:44;;;;;;;16.50;11.88;;;;;;;-143.21;57.76;71061.00;5118429;27;20196;-78
2023/07/17 01:16:11;;;;;;;16.08;11.60;;;;;;;-143.21;57.22;71059.00;5111288;27;20809;-78
2023/07/17 01:18:39;;;;;;;11.90;10.32;;;;;;;-143.21;56.79;71057.03;5124146;27;20215;-78
2023/07/17 01:21:08;;;;;;;14.75;10.15;;;;;;;-143.21;57.02;71066.94;5121393;27;20200;-78
2023/07/17 01:23:37;;;;;;;16.15;10.00;;;;;;;-143.21;56.52;71068.94;5128360;27;20653;-78
2023/07/17 01:26:12;;;;;;;17.90;10.32;;;;;;;-143.21;56.24;71070.91;5113254;27;20229;-78
2023/07/17 01:28:39;;;;;;;12.82;9.60;;;;;;;-143.21;55.19;71074.88;5126616;27;20363;-78
2023/07/17 01:31:06;;;;;;;13.27;9.90;;;;;;;-143.21;55.22;71074.88;5121954;27;20288;-77
2023/07/17 01:33:33;;;;;;;18.65;9.77;;;;;;;-143.21;54.67;71082.81;5113053;27;20200;-78
2023/07/17 01:36:00;;;;;;;11.82;9.65;;;;;;;-143.21;55.24;71082.81;5116650;27;20200;-77
2023/07/17 01:38:28;;;;;;;17.48;9.38;;;;;;;-143.21;54.45;71076.84;5116554;27;20291;-78
2023/07/17 01:40:56;;;;;;;12.63;8.73;;;;;;;-143.21;53.64;71072.88;5113999;27;20206;-78
2023/07/17 01:43:23;;;;;;;16.45;8.70;;;;;;;-143.21;53.10;71074.88;5111504;27;20650;-78
2023/07/17 01:45:50;;;;;;;11.05;9.00;;;;;;;-143.21;53.39;71074.88;5114196;27;20220;-78
2023/07/17 01:48:17;;;;;;;9.70;8.25;;;;;;;-143.21;53.29;71082.81;5117203;27;20626;-78
2023/07/17 01:50:44;;;;;;;11.45;7.95;;;;;;;-143.21;53.23;71086.75;5113355;27;20704;-78
2023/07/17 01:53:11;;;;;;;16.48;8.40;;;;;;;-143.21;53.12;71092.72;5110050;28;20326;-78
2023/07/17 01:55:38;;;;;;;13.80;8.43;;;;;;;-143.21;52.96;71094.69;5119843;27;20658;-77
2023/07/17 01:58:07;;;;;;;12.50;8.43;;;;;;;-143.21;52.71;71098.66;5121607;27;20256;-77
2023/07/17 02:00:35;;;;;;;12.98;8.13;;;;;;;-143.21;52.73;71104.59;5115920;27;20200;-77
2023/07/17 02:03:02;;;;;;;15.35;8.85;;;;;;;-143.21;53.14;71118.50;5111512;27;20203;-77
2023/07/17 02:05:28;;;;;;;12.60;8.90;;;;;;;-143.21;53.37;71122.44;5115106;27;20199;-77
2023/07/17 02:07:55;;;;;;;14.70;8.43;;;;;;;-143.21;53.04;71120.47;5110441;27;20227;-77
2023/07/17 02:10:22;;;;;;;15.18;8.48;;;;;;;-143.21;52.95;71130.38;5110355;27;20646;-78
2023/07/17 02:12:49;;;;;;;12.38;7.97;;;;;;;-143.21;52.38;71122.44;5114065;27;20226;-78
2023/07/17 02:15:17;;;;;;;16.52;8.73;;;;;;;-143.21;52.93;71126.41;5120447;27;20214;-78
2023/07/17 02:17:44;;;;;;;15.68;8.13;;;;;;;-143.21;52.85;71118.50;5110352;27;20265;-77
2023/07/17 02:20:13;;;;;;;16.77;8.05;;;;;;;-143.21;52.47;71128.41;5113506;27;20223;-78
2023/07/17 02:22:41;;;;;;;13.20;7.80;;;;;;;-143.21;52.77;71132.38;5117363;27;20722;-78
2023/07/17 02:25:08;;;;;;;14.82;7.82;;;;;;;-143.21;52.83;71130.38;5113515;27;20616;-77
2023/07/17 02:27:35;;;;;;;13.85;7.90;;;;;;;-143.21;53.01;71138.31;5114205;27;20228;-77
2023/07/17 02:30:03;;;;;;;13.05;7.82;;;;;;;-143.21;53.02;71154.16;5113980;27;20200;-77
2023/07/17 02:32:32;;;;;;;13.63;8.57;;;;;;;-143.21;53.14;71148.22;5114734;27;20249;-77
2023/07/17 02:34:58;;;;;;;11.30;8.00;;;;;;;-143.21;53.06;71158.13;5113811;27;20219;-78
2023/07/17 02:37:26;;;;;;;11.05;8.00;;;;;;;-143.21;53.22;71160.13;5122131;27;20214;-78
2023/07/17 02:39:53;;;;;;;13.00;8.30;;;;;;;-143.21;54.16;71166.06;5112615;27;20629;-78
2023/07/17 02:42:20;;;;;;;17.58;9.15;;;;;;;-143.21;54.84;71174.00;5116914;27;20211;-78
2023/07/17 02:44:47;;;;;;;14.90;9.50;;;;;;;-143.21;54.85;71185.88;5116885;27;20200;-78
2023/07/17 02:47:14;;;;;;;18.13;10.25;;;;;;;-143.21;55.51;71193.81;5117004;28;20227;-78
2023/07/17 02:49:43;;;;;;;20.63;11.15;;;;;;;-143.21;56.35;71209.69;5112433;27;20215;-78
2023/07/17 02:52:10;;;;;;;20.08;12.90;;;;;;;-143.21;57.23;71219.59;5115806;27;20871;-78
2023/07/17 02:54:37;;;;;;;22.20;13.27;;;;;;;-143.21;58.16;71233.47;5117767;27;20739;-78
2023/07/17 02:57:05;;;;;;;19.17;13.15;;;;;;;-143.21;59.26;71251.31;5112848;28;20260;-78
2023/07/17 02:59:32;;;;;;;21.23;13.30;;;;;;;-143.21;60.26;71259.25;5115379;28;20206;-77
2023/07/17 03:01:59;;;;;;;20.85;13.43;;;;;;;-143.21;60.79;71271.13;5117426;28;20575;-78
2023/07/17 03:04:26;;;;;;;19.65;13.75;;;;;;;-143.21;62.41;71290.97;5115454;28;20199;-78
2023/07/17 03:06:54;;;;;;;23.40;14.25;;;;;;;-143.21;63.39;71304.84;5119447;27;20223;-78
2023/07/17 03:09:21;;;;;;;26.40;13.95;;;;;;;-143.21;63.87;71308.81;5111774;28;20195;-78
2023/07/17 03:11:48;;;;;;;24.70;14.25;;;;;;;-143.21;64.30;71298.91;5116908;27;20545;-78
2023/07/17 03:14:15;;;;;;;21.98;14.10;;;;;;;-143.21;64.20;71294.94;5119688;28;20207;-78
2023/07/17 03:16:42;;;;;;;27.52;15.45;;;;;;;-143.21;64.41;71304.84;5117907;27;20236;-76
2023/07/17 03:19:10;;;;;;;21.35;14.13;;;;;;;-143.21;64.40;71310.78;5117526;27;20204;-77
2023/07/17 03:21:37;;;;;;;23.63;14.40;;;;;;;-143.21;64.46;71306.81;5127408;27;20195;-77
2023/07/17 03:24:05;;;;;;;19.42;14.10;;;;;;;-143.21;64.79;71304.84;5116328;27;20270;-77
2023/07/17 03:26:32;;;;;;;26.65;14.98;;;;;;;-143.21;65.13;71312.78;5122084;27;20625;-76
2023/07/17 03:28:59;;;;;;;21.13;14.02;;;;;;;-143.21;65.27;71320.69;5123074;27;20195;-77
2023/07/17 03:31:26;;;;;;;21.17;14.80;;;;;;;-143.21;65.35;71328.63;5118985;27;20221;-77
2023/07/17 03:33:53;;;;;;;16.40;14.05;;;;;;;-143.21;65.51;71324.66;5120212;27;20659;-77
2023/07/17 03:36:19;;;;;;;20.40;14.70;;;;;;;-143.21;65.54;71318.72;5127022;27;20218;-76
2023/07/17 03:38:46;;;;;;;20.88;15.05;;;;;;;-143.21;65.72;71332.59;5112759;27;20203;-78
2023/07/17 03:41:17;;;;;;;24.02;15.13;;;;;;;-143.21;66.58;71352.44;5114921;27;20238;-75
2023/07/17 03:43:44;;;;;;;20.55;15.25;;;;;;;-143.21;67.39;71366.31;5126070;27;20199;-76
2023/07/17 03:46:11;;;;;;;18.67;15.13;;;;;;;-143.21;68.11;71382.16;5129742;27;20211;-76
2023/07/17 03:48:38;;;;;;;25.85;16.67;;;;;;;-143.21;68.47;71394.06;5123349;27;20203;-75
2023/07/17 03:51:05;;;;;;;23.67;16.55;;;;;;;-143.21;69.05;71402.00;5125060;27;20579;-78
2023/07/17 03:53:31;;;;;;;24.40;16.80;;;;;;;-143.21;69.77;71427.75;5114510;27;20425;-76
2023/07/17 03:55:58;;;;;;;21.70;16.92;;;;;;;-143.21;71.42;71469.41;5113046;27;20277;-76
2023/07/17 03:58:27;;;;;;;25.92;17.20;;;;;;;-143.21;72.47;71489.22;5116170;27;20200;-76
2023/07/17 04:00:54;;;;;;;24.27;16.67;;;;;;;-143.21;72.78;71483.28;5118485;27;20203;-76
2023/07/17 04:03:20;;;;;;;25.88;17.55;;;;;;;-143.21;72.03;71461.47;5120096;27;20559;-77
2023/07/17 04:05:48;;;;;;;20.08;16.58;;;;;;;-143.21;70.78;71429.75;5116680;27;20236;-75
2023/07/17 04:08:15;;;;;;;26.55;16.75;;;;;;;-143.21;70.27;71419.84;5121887;27;20351;-76
2023/07/17 04:10:42;;;;;;;25.23;16.52;;;;;;;-143.21;69.92;71415.88;5123703;27;20318;-76
2023/07/17 04:13:09;;;;;;;27.17;16.08;;;;;;;-143.21;69.68;71413.88;5119318;27;20203;-75
2023/07/17 04:15:37;;;;;;;24.42;16.67;;;;;;;-143.21;69.79;71433.72;5112312;27;20196;-75
2023/07/17 04:18:04;;;;;;;21.95;16.20;;;;;;;-143.21;70.07;71443.63;5119033;27;20265;-75
2023/07/17 04:20:31;;;;;;;23.52;15.85;;;;;;;-143.21;70.18;71451.56;5111534;27;20200;-75
2023/07/17 04:22:57;;;;;;;19.67;15.63;;;;;;;-143.21;70.01;71455.53;5114954;27;20207;-76
2023/07/17 04:25:24;;;;;;;21.58;15.93;;;;;;;-143.21;69.78;71449.56;5115066;27;20204;-75
2023/07/17 04:27:51;;;;;;;26.05;16.48;;;;;;;-143.21;69.16;71437.69;5110896;27;20706;-75
2023/07/17 04:30:18;;;;;;;20.48;15.07;;;;;;;-143.21;67.80;71411.91;5118804;27;20204;-75
2023/07/17 04:32:46;;;;;;;20.42;15.52;;;;;;;-143.21;67.45;71405.94;5122817;27;20219;-76
2023/07/17 04:35:13;;;;;;;21.85;15.82;;;;;;;-143.21;67.01;71394.06;5118000;27;20207;-76
2023/07/17 04:37:41;;;;;;;24.23;16.13;;;;;;;-143.21;67.39;71400.00;5118912;27;20204;-76
2023/07/17 04:40:09;;;;;;;24.95;15.52;;;;;;;-143.21;67.33;71411.91;5124134;27;20207;-76
2023/07/17 04:42:36;;;;;;;23.08;15.07;;;;;;;-143.21;67.83;71425.78;5125154;27;20545;-76
2023/07/17 04:45:05;;;;;;;23.15;15.20;;;;;;;-143.21;68.00;71435.69;5113147;27;20207;-75
2023/07/17 04:47:32;;;;;;;24.38;15.32;;;;;;;-143.21;68.09;71445.59;5111208;27;20227;-75
2023/07/17 04:50:00;;;;;;;20.70;14.73;;;;;;;-143.21;68.34;71449.56;5118454;27;20235;-75
2023/07/17 04:52:26;;;;;;;18.98;14.32;;;;;;;-143.21;68.34;71443.63;5117280;27;20204;-77
2023/07/17 04:54:53;;;;;;;23.70;14.65;;;;;;;-143.21;67.89;71445.59;5115196;27;20276;-76
2023/07/17 04:57:21;;;;;;;18.80;14.00;;;;;;;-143.21;66.97;71447.59;5115542;27;20254;-77
2023/07/17 04:59:49;;;;;;;18.50;12.98;;;;;;;-143.21;65.09;71409.91;5125310;27;20663;-76
2023/07/17 05:02:16;;;;;;;22.08;11.90;;;;;;;-143.21;62.80;71386.13;5111107;27;20200;-76
2023/07/17 05:04:43;;;;;;;15.50;11.65;;;;;;;-143.21;61.38;71366.31;5114645;27;20226;-76
2023/07/17 05:07:11;;;;;;;21.50;11.25;;;;;;;-143.21;61.40;71368.28;5113224;27;20236;-76
2023/07/17 05:09:38;;;;;;;19.65;11.95;;;;;;;-143.21;61.02;71380.19;5125758;27;20207;-76
2023/07/17 05:12:06;;;;;;;19.52;13.40;;;;;;;-143.21;62.89;71394.06;5111175;27;20206;-76
2023/07/17 05:14:33;;;;;;;19.40;13.15;;;;;;;-143.21;63.65;71431.72;5111006;27;20208;-76
2023/07/17 05:17:02;;;;;;;18.92;12.90;;;;;;;-143.21;64.83;71435.69;5121909;27;20646;-76
2023/07/17 05:19:28;;;;;;;14.77;12.02;;;;;;;-143.21;63.74;71435.69;5124223;27;20233;-76
2023/07/17 05:21:55;;;;;;;19.67;12.02;;;;;;;-143.21;62.74;71435.69;5114201;27;20203;-76
2023/07/17 05:24:25;;;;;;;17.63;12.27;;;;;;;-143.21;63.01;71427.75;5114390;27;20203;-77
2023/07/17 05:26:52;;;;;;;18.25;12.35;;;;;;;-143.21;63.33;71425.78;5110569;27;20200;-76
2023/07/17 05:29:19;;;;;;;16.10;12.05;;;;;;;-143.21;61.50;71405.94;5118534;27;20200;-76
2023/07/17 05:31:45;;;;;;;15.98;12.27;;;;;;;-143.21;61.10;71380.19;5117760;27;20256;-76
2023/07/17 05:34:12;;;;;;;16.08;12.32;;;;;;;-143.21;60.96;71362.34;5117607;27;20211;-76
2023/07/17 05:36:39;;;;;;;19.13;11.68;;;;;;;-143.21;60.81;71358.38;5120015;27;20675;-76
2023/07/17 05:39:06;;;;;;;21.55;12.98;;;;;;;-143.21;60.34;71350.44;5115657;27;20205;-77
2023/07/17 05:41:34;;;;;;;26.83;12.55;;;;;;;-143.21;60.88;71372.25;5118114;27;20202;-77
2023/07/17 05:44:01;;;;;;;23.83;12.20;;;;;;;-143.21;61.35;71380.19;5119722;27;20199;-76
2023/07/17 05:46:28;;;;;;;23.77;11.93;;;;;;;-143.21;61.34;71384.16;5116906;27;20200;-76
2023/07/17 05:48:54;;;;;;;21.63;10.80;;;;;;;-143.21;60.42;71388.09;5114348;27;20224;-76
2023/07/17 05:51:21;;;;;;;17.88;11.27;;;;;;;-143.21;60.46;71382.16;5106559;27;20227;-76
2023/07/17 05:53:48;;;;;;;23.83;10.88;;;;;;;-143.21;60.48;71388.09;5107004;27;20192;-77
2023/07/17 05:56:15;;;;;;;20.85;10.95;;;;;;;-143.21;60.31;71386.13;5116663;27;20204;-77
2023/07/17 05:58:44;;;;;;;14.70;10.68;;;;;;;-143.21;60.21;71380.19;5117681;27;20305;-77
2023/07/17 06:01:10;;;;;;;19.80;11.07;;;;;;;-143.21;60.12;71374.22;5116298;27;20302;-77
2023/07/17 06:03:37;;;;;;;24.00;11.00;;;;;;;-143.21;58.98;71336.56;5122087;27;20205;-76
2023/07/17 06:06:04;;;;;;;18.85;9.95;;;;;;;-143.21;55.93;71312.78;5110535;27;20203;-76
2023/07/17 06:08:31;;;;;;;16.00;8.82;;;;;;;-143.21;55.25;71288.97;5121299;27;20223;-76
2023/07/17 06:10:58;;;;;;;17.17;9.98;;;;;;;-143.21;56.79;71292.94;5114876;27;20196;-76
2023/07/17 06:13:25;;;;;;;18.67;10.07;;;;;;;-143.21;57.09;71290.97;5113237;27;20276;-76
2023/07/17 06:15:53;;;;;;;22.52;10.32;;;;;;;-143.21;57.30;71283.03;5113745;27;20211;-76
2023/07/17 06:18:20;;;;;;;19.15;10.32;;;;;;;-143.21;56.15;71288.97;5113778;27;20196;-76
2023/07/17 06:20:46;;;;;;;21.02;9.75;;;;;;;-143.21;56.16;71296.91;5094760;27;20676;-78
2023/07/17 06:23:13;;;;;;;14.98;9.70;;;;;;;-143.21;55.19;71292.94;5078712;27;20204;-78
2023/07/17 06:25:41;;;;;;;17.70;10.18;;;;;;;-143.21;54.71;71296.91;5082855;27;20196;-78
2023/07/17 06:28:20;;;;;;;12.38;9.50;;;;;;;-143.21;54.68;71287.00;5097011;27;20222;-78
2023/07/17 06:30:47;;;;;;;16.33;10.23;;;;;;;-143.21;55.56;71279.06;5102037;27;20199;-78
2023/07/17 06:33:16;;;;;;;17.58;10.43;;;;;;;-143.21;55.51;71273.13;5107303;27;20580;-77
2023/07/17 06:35:44;;;;;;;21.40;10.32;;;;;;;-143.21;54.83;71261.22;5120716;27;20216;-77
2023/07/17 06:38:11;;;;;;;40.97;13.68;;;;;;;-143.21;54.59;71243.38;5114880;27;20208;-77
2023/07/17 06:40:38;;;;;;;47.30;13.93;;;;;;;-143.21;54.57;71241.41;5112056;27;20214;-77
2023/07/17 06:43:05;;;;;;;20.75;13.13;;;;;;;-143.21;56.33;71257.25;5104510;27;20200;-75
2023/07/17 06:45:32;;;;;;;18.42;11.18;;;;;;;-143.21;56.32;71257.25;5103992;27;20675;-74
2023/07/17 06:47:59;;;;;;;18.77;11.35;;;;;;;-143.21;56.32;71245.38;5111966;27;20226;-75
2023/07/17 06:50:27;;;;;;;21.33;11.73;;;;;;;-143.21;55.61;71227.53;5118012;27;20234;-76
2023/07/17 06:52:54;;;;;;;16.52;10.73;;;;;;;-143.21;55.18;71191.84;5119326;27;20204;-76
2023/07/17 06:55:21;;;;;;;16.58;10.27;;;;;;;-143.21;54.83;71172.00;5108994;28;20566;-76
2023/07/17 06:57:47;;;;;;;18.30;10.90;;;;;;;-143.21;54.64;71154.16;5111872;28;20191;-76
2023/07/17 07:00:15;;;;;;;16.42;9.82;;;;;;;-143.21;54.35;71140.28;5118271;28;20214;-76
2023/07/17 07:02:42;;;;;;;16.30;9.30;;;;;;;-143.21;51.16;71130.38;5112099;28;20214;-76
2023/07/17 07:05:09;;;;;;;13.50;9.43;;;;;;;-143.21;51.10;71126.41;5112993;28;20689;-76
2023/07/17 07:07:37;;;;;;;16.85;9.82;;;;;;;-143.21;51.03;71110.56;5113226;28;20279;-76
2023/07/17 07:10:05;;;;;;;18.05;9.52;;;;;;;-143.21;50.82;71108.56;5106993;28;20670;-76
2023/07/17 07:12:32;;;;;;;17.98;9.85;;;;;;;-143.21;52.69;71100.66;5111005;28;20191;-76
2023/07/17 07:14:59;;;;;;;14.65;9.43;;;;;;;-143.21;53.13;71078.84;5122553;28;20191;-76
2023/07/17 07:17:25;;;;;;;13.52;10.77;;;;;;;-143.21;52.72;71059.00;5111788;28;20192;-77
2023/07/17 07:19:52;;;;;;;16.90;11.40;;;;;;;-143.21;52.38;71059.00;5112786;28;20208;-78
2023/07/17 07:22:19;;;;;;;24.48;11.68;;;;;;;-143.21;52.36;71061.00;5116077;28;20196;-78
2023/07/17 07:24:47;;;;;;;14.02;9.60;;;;;;;-143.21;51.78;71062.97;5119073;27;20684;-77
2023/07/17 07:27:14;;;;;;;20.48;11.10;;;;;;;-143.21;52.11;71051.09;5112090;28;20207;-77
2023/07/17 07:29:41;;;;;;;20.38;10.95;;;;;;;-143.21;52.05;71051.09;5112554;28;20198;-78
2023/07/17 07:32:08;;;;;;;14.73;10.82;;;;;;;-143.21;51.19;71035.22;5113379;28;20203;-77
2023/07/17 07:34:35;;;;;;;24.88;10.40;;;;;;;-143.21;51.53;71023.34;5120860;28;20658;-77
2023/07/17 07:37:03;;;;;;;23.88;10.82;;;;;;;-143.21;51.98;71003.50;5120574;27;20286;-77
2023/07/17 07:39:30;;;;;;;19.80;11.13;;;;;;;-143.21;51.41;70999.53;5114499;27;20196;-77
2023/07/17 07:41:58;;;;;;;14.32;11.25;;;;;;;-143.21;51.51;70983.69;5115603;28;20594;-77
2023/07/17 07:44:25;;;;;;;16.42;11.77;;;;;;;-143.21;51.46;70985.66;5119316;28;20267;-76
2023/07/17 07:46:51;;;;;;;18.30;11.50;;;;;;;-143.21;51.10;70983.69;5113552;28;20703;-75
2023/07/17 07:49:18;;;;;;;23.33;13.13;;;;;;;-143.21;51.78;70971.78;5110634;28;20219;-76
2023/07/17 07:51:45;;;;;;;21.55;13.18;;;;;;;-143.21;51.75;70963.84;5110303;28;20759;-77
2023/07/17 07:54:12;;;;;;;23.35;13.88;;;;;;;-143.21;52.11;70951.97;5110368;28;20204;-77
2023/07/17 07:56:39;;;;;;;21.55;12.93;;;;;;;-143.21;51.82;70938.09;5117852;28;20218;-76
2023/07/17 07:59:07;;;;;;;22.08;13.50;;;;;;;-143.21;50.75;70930.16;5115303;27;20203;-76
2023/07/17 08:01:34;;;;;;;18.35;13.38;;;;;;;-143.21;52.70;70924.22;5110338;28;20192;-76
2023/07/17 08:04:01;;;;;;;23.65;13.57;;;;;;;-143.21;52.63;70906.38;5112619;28;20713;-77
2023/07/17 08:06:27;;;;;;;20.50;15.02;;;;;;;-143.21;52.40;70902.41;5114540;28;20200;-76
2023/07/17 08:08:54;;;;;;;19.17;14.85;;;;;;;-143.21;51.79;70892.50;5114335;28;20215;-76
2023/07/17 08:11:22;;;;;;;22.05;14.35;;;;;;;-143.21;51.77;70884.56;5114585;28;20199;-76
2023/07/17 08:13:48;;;;;;;21.48;13.20;;;;;;;-143.21;51.64;70864.75;5114253;28;20211;-75
2023/07/17 08:16:17;;;;;;;18.13;12.63;;;;;;;-143.21;50.70;70860.78;5114424;27;20196;-76
2023/07/17 08:18:43;;;;;;;16.40;11.98;;;;;;;-143.21;50.58;70850.88;5114624;28;20196;-77
2023/07/17 08:21:10;;;;;;;18.30;12.30;;;;;;;-143.21;50.18;70850.88;5114079;28;20200;-77
2023/07/17 08:23:37;;;;;;;18.05;12.38;;;;;;;-143.21;50.60;70842.94;5114303;28;20188;-77
2023/07/17 08:26:04;;;;;;;18.90;13.23;;;;;;;-143.21;50.96;70829.06;5114649;28;20230;-76
2023/07/17 08:28:31;;;;;;;17.65;13.38;;;;;;;-143.21;51.41;70848.88;5114171;28;20304;-77
2023/07/17 08:30:58;;;;;;;21.98;13.15;;;;;;;-143.21;50.01;70862.75;5113751;28;20211;-77
2023/07/17 08:33:31;;;;;;;21.05;12.95;;;;;;;-143.21;51.78;70848.88;5114319;27;20196;-77
2023/07/17 08:35:58;;;;;;;35.05;14.68;;;;;;;-143.21;51.82;70827.06;5113736;27;20289;-77
2023/07/17 08:38:25;;;;;;;19.27;13.95;;;;;;;-143.21;50.88;70809.25;5112526;27;20693;-77
2023/07/17 08:40:54;;;;;;;21.20;13.73;;;;;;;-143.21;50.38;70793.38;5092853;28;20683;-77
2023/07/17 08:43:21;;;;;;;20.55;14.20;;;;;;;-143.21;50.55;70773.56;5110451;28;20200;-80
2023/07/17 08:45:50;;;;;;;18.10;12.85;;;;;;;-143.21;49.98;70757.69;5113667;28;20203;-77
2023/07/17 08:48:17;;;;;;;23.35;14.35;;;;;;;-143.21;49.76;70753.72;5108679;28;20648;-86
2023/07/17 08:50:46;;;;;;;15.63;13.25;;;;;;;-143.21;49.60;70749.78;5113848;28;20227;-86
2023/07/17 08:53:13;;;;;;;21.38;13.65;;;;;;;-143.21;50.08;70741.84;5130012;27;20226;-87
2023/07/17 08:55:41;;;;;;;22.13;13.57;;;;;;;-143.21;50.11;70733.91;5134569;27;20192;-86
2023/07/17 08:58:09;;;;;;;20.20;13.20;;;;;;;-143.21;50.14;70720.03;5113783;27;20199;-87
2023/07/17 09:00:36;;;;;;;21.95;13.50;;;;;;;-143.21;49.47;70706.16;5114011;28;20192;-87
2023/07/17 09:03:03;;;;;;;19.13;13.45;;;;;;;-143.21;49.23;70692.28;5113861;28;20204;-87
2023/07/17 09:05:30;;;;;;;21.77;13.55;;;;;;;-143.21;48.94;70672.47;5113960;28;20214;-86
2023/07/17 09:07:58;;;;;;;24.40;13.63;;;;;;;-143.21;48.37;70662.56;5106644;28;20625;-87
2023/07/17 09:10:25;;;;;;;16.95;12.85;;;;;;;-143.21;47.09;70650.66;5113287;28;20203;-87
2023/07/17 09:12:55;;;;;;;21.90;13.32;;;;;;;-143.21;47.53;70642.72;5113470;28;20188;-87
2023/07/17 09:15:22;;;;;;;16.60;12.90;;;;;;;-143.21;47.73;70620.94;5114076;28;20192;-87
2023/07/17 09:17:49;;;;;;;22.83;13.50;;;;;;;-143.21;47.10;70611.00;5113945;27;20196;-87
2023/07/17 09:20:17;;;;;;;14.32;11.48;;;;;;;-143.21;43.69;70624.88;5113604;28;20215;-87
2023/07/17 09:22:45;;;;;;;19.52;12.23;;;;;;;-143.21;44.75;70616.97;5113667;28;20208;-87
2023/07/17 09:25:17;;;;;;;12.85;11.30;;;;;;;-143.21;45.57;70624.88;5113463;28;20188;-87
2023/07/17 09:27:45;;;;;;;16.83;11.05;;;;;;;-143.21;44.57;70591.19;5113295;28;20192;-87
2023/07/17 09:30:14;;;;;;;13.23;11.55;;;;;;;-143.21;44.35;70589.22;5113069;28;20280;-87
2023/07/17 09:32:41;;;;;;;15.73;11.50;;;;;;;-143.21;44.04;70563.44;5122238;27;20191;-87
2023/07/17 09:35:11;;;;;;;14.95;11.45;;;;;;;-143.21;43.04;70543.63;5133648;27;20199;-87
2023/07/17 09:37:40;;;;;;;15.93;10.65;;;;;;;-143.21;43.53;70513.88;5115716;27;20335;-87
2023/07/17 09:40:09;;;;;;;16.95;11.02;;;;;;;-143.21;42.67;70498.03;5113364;28;20192;-87
2023/07/17 09:42:38;;;;;;;15.13;11.10;;;;;;;-143.21;43.11;70498.03;5113420;28;20273;-87
2023/07/17 09:45:06;;;;;;;16.95;10.95;;;;;;;-143.21;42.43;70496.06;5113329;28;20192;-87
2023/07/17 09:47:35;;;;;;;20.10;11.32;;;;;;;-143.21;42.49;70492.09;5110251;28;20690;-87
2023/07/17 09:50:03;;;;;;;14.20;10.20;;;;;;;-143.21;41.38;70513.88;5092677;28;20691;-87
2023/07/17 09:52:31;;;;;;;15.02;9.82;;;;;;;-143.21;40.91;70498.03;5092757;28;20196;-87
2023/07/17 09:55:00;;;;;;;19.73;10.57;;;;;;;-143.21;40.64;70466.31;5092330;28;20196;-87
2023/07/17 09:57:29;;;;;;;10.05;8.48;;;;;;;-143.21;39.00;70462.34;5121748;27;20294;-87
2023/07/17 09:59:59;;;;;;;15.52;9.05;;;;;;;-143.21;38.06;70468.31;5133786;27;20203;-86
2023/07/17 10:02:30;;;;;;;15.82;8.70;;;;;;;-143.21;38.73;70460.38;5133680;27;20195;-87
2023/07/17 10:05:00;;;;;;;16.05;9.60;;;;;;;-143.21;38.42;70436.59;5124432;27;20291;-87
2023/07/17 10:07:29;;;;;;;12.77;9.13;;;;;;;-143.21;38.36;70412.81;5112434;28;20227;-86
2023/07/17 10:09:59;;;;;;;15.52;9.52;;;;;;;-143.21;37.91;70394.97;5112419;28;20220;-87
2023/07/17 10:12:26;;;;;;;13.65;8.82;;;;;;;-143.21;37.73;70420.72;5112749;28;20277;-87
2023/07/17 10:14:54;;;;;;;12.85;7.78;;;;;;;-143.21;35.54;70392.97;5112549;28;20199;-86
2023/07/17 10:17:29;;;;;;;13.82;8.23;;;;;;;-143.21;36.28;70377.13;5112531;28;20237;-87
2023/07/17 10:19:58;;;;;;;10.55;8.48;;;;;;;-143.21;36.06;70385.06;5112367;28;20191;-87
2023/07/17 10:22:29;;;;;;;13.77;8.63;;;;;;;-143.21;37.18;70402.91;5096885;28;20231;-77
2023/07/17 10:24:56;;;;;;;15.20;9.07;;;;;;;-143.21;37.24;70396.94;5097198;28;20253;-77
2023/07/17 10:27:38;;;;;;;12.18;8.75;;;;;;;-143.21;36.07;70375.16;5125336;27;20210;-78
2023/07/17 10:30:23;;;;;;;13.30;8.70;;;;;;;-143.21;35.74;70349.38;5132651;27;20303;-78
2023/07/17 10:33:05;;;;;;;10.40;8.88;;;;;;;-143.21;36.02;70303.78;5132911;27;20248;-77
2023/07/17 10:35:47;;;;;;;8.93;7.78;;;;;;;-143.21;34.99;70278.03;5131817;27;20225;-78
2023/07/17 10:38:16;;;;;;;13.13;8.63;;;;;;;-143.21;35.21;70244.34;5121976;27;20192;-77
2023/07/17 10:40:43;;;;;;;10.32;7.63;;;;;;;-143.21;33.96;70234.44;5123619;27;20191;-78
2023/07/17 10:43:20;;;;;;;9.65;7.97;;;;;;;-143.21;33.09;70266.13;5127509;27;20666;-77
2023/07/17 10:45:48;;;;;;;10.40;7.35;;;;;;;-143.21;32.70;70270.09;5111947;28;20192;-77
2023/07/17 10:48:18;;;;;;;13.00;7.85;;;;;;;-143.21;33.82;70246.31;5111828;28;20199;-78
2023/07/17 10:50:49;;;;;;;12.90;8.40;;;;;;;-143.21;33.61;70230.47;5123097;27;20215;-77
2023/07/17 10:53:16;;;;;;;11.30;7.50;;;;;;;-143.21;33.69;70246.31;5132580;27;20215;-78
2023/07/17 10:55:44;;;;;;;11.13;7.35;;;;;;;-143.21;32.71;70244.34;5132135;27;20191;-77
2023/07/17 10:58:11;;;;;;;15.90;7.97;;;;;;;-143.21;33.20;70230.47;5091156;28;20200;-78
2023/07/17 11:00:41;;;;;;;11.43;7.70;;;;;;;-143.21;32.86;70232.44;5110816;28;20204;-78
2023/07/17 11:03:07;;;;;;;10.23;7.68;;;;;;;-143.21;33.37;70236.41;5132183;27;20191;-77
2023/07/17 11:05:39;;;;;;;12.18;8.40;;;;;;;-143.21;33.60;70184.88;5132099;28;20203;-78
2023/07/17 11:08:06;;;;;;;9.18;7.82;;;;;;;-143.21;32.70;70176.94;5132303;27;20215;-77